Pagrindinis puslapis
METAR-TAF:

METAR-TAF

Oro uostai :

Kindersley, Saskačevanas, Kanada

platuma: 51-31N, ilguma: 109-10W, Aukštis: 694 m

Dabartinis oras

Ataskaita buvo paskelbta 30 minutes, ne 14:00 UTC
Vėjas 7 kt iš Pietų
Temperatūra -27°C
Drėgmė 75%
Slėgis 1029 hPa
Matomumas: 24.1 km
Mažai debesys ne aukštis 24000 ft

METAR: CYKY 191400Z 17007KT 15SM FEW240 M27/M30 A3038 RMK CI1 SLP372

Laikas: 08:30 (14:30 UTC)


TAF: trūkstamas

Orai ataskaitas ir orų prognozės (METAR, TAF).

turimą stotys yra geltonos ir raudonos taškus žemėlapyje.

Perkelti pele per norėdami pamatyti stoties vardą.

Tada spustelėkite, norėdami matyti oro stebėjimo ir prognozės.

Norėdami pakeisti žemėlapį: spustelėkite ant žalios mygtukų su juodo kryžiaus žemyn,; žalią mygtuką su brūkšneliu, jei norite nutolinti; arba žalių rodyklių gretimoms žemėlapius.


METAR-TAF: